TimeEST,TemperatureF,Dew PointF,Humidity,Sea Level PressureIn,VisibilityMPH,Wind Direction,Wind SpeedMPH,Gust SpeedMPH,PrecipitationIn,Events,Conditions,WindDirDegrees,DateUTC
12:51 AM,17.1,1.0,50,30.22,9.0,West,5.8,-,0.00,Snow,Light Snow,270,2014-01-29 05:51:00
1:32 AM,15.8,6.8,68,30.22,2.5,WNW,6.9,-,0.00,Snow,Light Snow,300,2014-01-29 06:32:00
1:34 AM,15.8,6.8,68,30.21,2.0,NW,6.9,-,0.00,Snow,Light Snow,320,2014-01-29 06:34:00
1:51 AM,15.1,7.0,70,30.22,2.0,NNW,6.9,-,0.01,Snow,Light Snow,330,2014-01-29 06:51:00
2:20 AM,15.8,8.6,73,30.21,1.2,NNW,6.9,-,0.01,Snow,Light Snow,340,2014-01-29 07:20:00
2:44 AM,15.8,8.6,73,30.20,1.8,NW,8.1,-,0.02,Snow,Light Snow,320,2014-01-29 07:44:00
2:49 AM,15.8,8.6,73,30.20,2.0,NW,6.9,-,0.02,Snow,Light Snow,320,2014-01-29 07:49:00
2:51 AM,15.1,9.0,77,30.19,2.0,NNW,8.1,-,0.02,Snow,Light Snow,330,2014-01-29 07:51:00
3:25 AM,15.8,8.6,73,30.18,2.0,NNW,9.2,-,0.00,Snow,Light Snow,330,2014-01-29 08:25:00
3:35 AM,15.8,8.6,73,30.18,2.0,NW,9.2,-,0.00,Snow,Light Snow,320,2014-01-29 08:35:00
3:51 AM,15.1,9.0,77,30.17,2.0,NW,11.5,-,0.01,Snow,Light Snow,320,2014-01-29 08:51:00
4:51 AM,15.1,8.1,74,30.14,2.0,NNW,9.2,-,0.01,Snow,Light Snow,330,2014-01-29 09:51:00
4:56 AM,15.8,8.6,73,30.14,4.0,NNW,8.1,-,0.00,Snow,Light Snow,340,2014-01-29 09:56:00
5:51 AM,15.1,8.1,74,30.16,9.0,WNW,11.5,-,0.00,Snow,Light Snow,300,2014-01-29 10:51:00
6:51 AM,15.1,3.0,59,30.17,10.0,WNW,12.7,-,0.00,,Mostly Cloudy,300,2014-01-29 11:51:00
7:51 AM,15.1,1.0,54,30.18,9.0,NW,15.0,-,N/A,,Mostly Cloudy,310,2014-01-29 12:51:00
8:51 AM,15.1,-2.0,47,30.19,9.0,NW,11.5,21.9,N/A,,Mostly Cloudy,310,2014-01-29 13:51:00
9:51 AM,16.0,-4.0,41,30.19,10.0,WNW,12.7,-,N/A,,Partly Cloudy,300,2014-01-29 14:51:00
10:51 AM,17.1,-2.9,41,30.17,10.0,NW,18.4,-,N/A,,Partly Cloudy,310,2014-01-29 15:51:00
11:51 AM,19.0,-2.0,40,30.17,10.0,WNW,10.4,-,N/A,,Partly Cloudy,300,2014-01-29 16:51:00
12:51 PM,19.9,-5.1,33,30.13,10.0,West,11.5,-,N/A,,Partly Cloudy,260,2014-01-29 17:51:00
1:51 PM,21.9,-6.0,29,30.12,10.0,West,12.7,21.9,N/A,,Partly Cloudy,280,2014-01-29 18:51:00
2:51 PM,23.0,-6.0,28,30.10,10.0,West,9.2,18.4,N/A,,Partly Cloudy,260,2014-01-29 19:51:00
3:51 PM,23.0,-6.0,28,30.12,10.0,WSW,11.5,-,N/A,,Clear,250,2014-01-29 20:51:00
4:51 PM,21.9,-7.1,28,30.13,10.0,West,17.3,-,N/A,,Clear,260,2014-01-29 21:51:00
5:51 PM,21.9,-6.0,29,30.17,10.0,West,13.8,25.3,N/A,,Clear,260,2014-01-29 22:51:00
6:51 PM,21.0,-5.1,32,30.21,10.0,WSW,16.1,-,N/A,,Clear,250,2014-01-29 23:51:00
7:51 PM,19.9,-4.0,35,30.24,10.0,West,16.1,23.0,N/A,,Clear,260,2014-01-30 00:51:00
8:51 PM,19.9,-4.0,35,30.25,10.0,West,17.3,25.3,N/A,,Clear,270,2014-01-30 01:51:00
9:51 PM,21.0,-4.0,33,30.27,10.0,West,13.8,21.9,N/A,,Clear,260,2014-01-30 02:51:00
10:51 PM,19.0,-4.0,36,30.28,10.0,West,6.9,-,N/A,,Clear,270,2014-01-30 03:51:00
11:51 PM,19.0,-2.0,40,30.30,10.0,WNW,9.2,-,N/A,,Clear,300,2014-01-30 04:51:00